sensor_id;sensor_type;location;lat;lon;timestamp;P1;durP1;ratioP1;P2;durP2;ratioP2
77206;SDS011;66190;50.708;7.906;2023-01-15T00:00:18;3.90;;;0.80;;
77206;SDS011;66190;50.708;7.906;2023-01-15T00:02:44;3.45;;;0.80;;
77206;SDS011;66190;50.708;7.906;2023-01-15T00:05:09;3.80;;;0.50;;
77206;SDS011;66190;50.708;7.906;2023-01-15T00:07:35;4.50;;;0.60;;
77206;SDS011;66190;50.708;7.906;2023-01-15T00:10:00;3.20;;;0.60;;
77206;SDS011;66190;50.708;7.906;2023-01-15T00:12:26;6.00;;;0.80;;
77206;SDS011;66190;50.708;7.906;2023-01-15T00:14:52;4.38;;;0.70;;
77206;SDS011;66190;50.708;7.906;2023-01-15T00:17:17;4.10;;;0.70;;
77206;SDS011;66190;50.708;7.906;2023-01-15T00:19:43;4.70;;;1.00;;
77206;SDS011;66190;50.708;7.906;2023-01-15T00:22:08;5.97;;;1.10;;
77206;SDS011;66190;50.708;7.906;2023-01-15T00:24:34;3.35;;;0.80;;
77206;SDS011;66190;50.708;7.906;2023-01-15T00:27:18;3.75;;;1.00;;
77206;SDS011;66190;50.708;7.906;2023-01-15T00:30:02;4.88;;;0.95;;
77206;SDS011;66190;50.708;7.906;2023-01-15T00:32:29;3.80;;;0.77;;
77206;SDS011;66190;50.708;7.906;2023-01-15T00:34:55;3.10;;;0.70;;
77206;SDS011;66190;50.708;7.906;2023-01-15T00:37:24;3.65;;;0.75;;
77206;SDS011;66190;50.708;7.906;2023-01-15T00:39:50;4.78;;;1.00;;
77206;SDS011;66190;50.708;7.906;2023-01-15T00:42:16;4.90;;;1.13;;
77206;SDS011;66190;50.708;7.906;2023-01-15T00:44:42;4.63;;;0.98;;
77206;SDS011;66190;50.708;7.906;2023-01-15T00:47:08;3.00;;;0.70;;
77206;SDS011;66190;50.708;7.906;2023-01-15T00:49:38;4.72;;;0.73;;
77206;SDS011;66190;50.708;7.906;2023-01-15T00:52:07;5.37;;;0.93;;
77206;SDS011;66190;50.708;7.906;2023-01-15T00:54:33;2.28;;;0.40;;
77206;SDS011;66190;50.708;7.906;2023-01-15T00:56:58;3.03;;;0.40;;
77206;SDS011;66190;50.708;7.906;2023-01-15T00:59:24;1.60;;;0.40;;
77206;SDS011;66190;50.708;7.906;2023-01-15T01:01:49;4.00;;;0.83;;
77206;SDS011;66190;50.708;7.906;2023-01-15T01:04:15;2.33;;;0.40;;
77206;SDS011;66190;50.708;7.906;2023-01-15T01:06:41;1.63;;;0.40;;
77206;SDS011;66190;50.708;7.906;2023-01-15T01:09:08;3.83;;;0.40;;
77206;SDS011;66190;50.708;7.906;2023-01-15T01:11:38;2.65;;;0.47;;
77206;SDS011;66190;50.708;7.906;2023-01-15T01:14:04;2.33;;;0.40;;
77206;SDS011;66190;50.708;7.906;2023-01-15T01:16:30;3.20;;;0.50;;
77206;SDS011;66190;50.708;7.906;2023-01-15T01:18:59;1.92;;;0.30;;
77206;SDS011;66190;50.708;7.906;2023-01-15T01:21:28;2.33;;;0.40;;
77206;SDS011;66190;50.708;7.906;2023-01-15T01:23:54;2.20;;;0.40;;
77206;SDS011;66190;50.708;7.906;2023-01-15T01:26:21;2.35;;;0.45;;
77206;SDS011;66190;50.708;7.906;2023-01-15T01:28:47;2.67;;;0.40;;
77206;SDS011;66190;50.708;7.906;2023-01-15T01:31:14;3.40;;;0.50;;
77206;SDS011;66190;50.708;7.906;2023-01-15T01:33:40;2.53;;;0.43;;
77206;SDS011;66190;50.708;7.906;2023-01-15T01:36:06;3.37;;;0.50;;
77206;SDS011;66190;50.708;7.906;2023-01-15T01:38:32;2.85;;;0.40;;
77206;SDS011;66190;50.708;7.906;2023-01-15T01:40:57;1.93;;;0.40;;
77206;SDS011;66190;50.708;7.906;2023-01-15T01:43:24;2.72;;;0.45;;
77206;SDS011;66190;50.708;7.906;2023-01-15T01:45:52;2.63;;;0.40;;
77206;SDS011;66190;50.708;7.906;2023-01-15T01:48:20;2.88;;;0.43;;
77206;SDS011;66190;50.708;7.906;2023-01-15T01:50:53;6.03;;;0.60;;
77206;SDS011;66190;50.708;7.906;2023-01-15T01:53:22;3.13;;;0.40;;
77206;SDS011;66190;50.708;7.906;2023-01-15T01:55:51;4.38;;;0.40;;
77206;SDS011;66190;50.708;7.906;2023-01-15T01:58:17;2.67;;;0.40;;
77206;SDS011;66190;50.708;7.906;2023-01-15T02:00:45;3.67;;;0.40;;
77206;SDS011;66190;50.708;7.906;2023-01-15T02:03:16;3.35;;;0.40;;
77206;SDS011;66190;50.708;7.906;2023-01-15T02:05:45;2.37;;;0.33;;
77206;SDS011;66190;50.708;7.906;2023-01-15T02:08:14;2.83;;;0.40;;
77206;SDS011;66190;50.708;7.906;2023-01-15T02:10:40;2.08;;;0.40;;
77206;SDS011;66190;50.708;7.906;2023-01-15T02:13:18;2.90;;;0.40;;
77206;SDS011;66190;50.708;7.906;2023-01-15T02:15:57;3.78;;;0.40;;
77206;SDS011;66190;50.708;7.906;2023-01-15T02:21:50;4.03;;;0.40;;
77206;SDS011;66190;50.708;7.906;2023-01-15T02:24:42;2.25;;;0.50;;
77206;SDS011;66190;50.708;7.906;2023-01-15T02:27:18;3.78;;;0.30;;
77206;SDS011;66190;50.708;7.906;2023-01-15T02:32:26;2.55;;;0.40;;
77206;SDS011;66190;50.708;7.906;2023-01-15T02:34:56;1.67;;;0.30;;
77206;SDS011;66190;50.708;7.906;2023-01-15T02:37:26;2.30;;;0.30;;
77206;SDS011;66190;50.708;7.906;2023-01-15T02:39:56;2.08;;;0.63;;
77206;SDS011;66190;50.708;7.906;2023-01-15T02:42:24;1.25;;;0.30;;
77206;SDS011;66190;50.708;7.906;2023-01-15T02:44:53;1.88;;;0.30;;
77206;SDS011;66190;50.708;7.906;2023-01-15T02:47:23;3.83;;;0.40;;
77206;SDS011;66190;50.708;7.906;2023-01-15T02:49:52;4.00;;;0.40;;
77206;SDS011;66190;50.708;7.906;2023-01-15T02:52:37;3.40;;;0.40;;
77206;SDS011;66190;50.708;7.906;2023-01-15T02:55:23;2.75;;;0.40;;
77206;SDS011;66190;50.708;7.906;2023-01-15T02:57:53;3.20;;;0.50;;
77206;SDS011;66190;50.708;7.906;2023-01-15T03:00:22;2.53;;;0.30;;
77206;SDS011;66190;50.708;7.906;2023-01-15T03:02:52;2.20;;;0.30;;
77206;SDS011;66190;50.708;7.906;2023-01-15T03:05:30;3.58;;;0.40;;
77206;SDS011;66190;50.708;7.906;2023-01-15T03:08:07;1.77;;;0.30;;
77206;SDS011;66190;50.708;7.906;2023-01-15T03:10:41;4.13;;;0.50;;
77206;SDS011;66190;50.708;7.906;2023-01-15T03:13:07;3.60;;;0.40;;
77206;SDS011;66190;50.708;7.906;2023-01-15T03:15:50;2.85;;;0.30;;
77206;SDS011;66190;50.708;7.906;2023-01-15T03:18:46;2.10;;;0.40;;
77206;SDS011;66190;50.708;7.906;2023-01-15T03:21:18;3.72;;;0.30;;
77206;SDS011;66190;50.708;7.906;2023-01-15T03:23:47;2.75;;;0.40;;
77206;SDS011;66190;50.708;7.906;2023-01-15T03:26:17;4.20;;;0.63;;
77206;SDS011;66190;50.708;7.906;2023-01-15T03:28:43;1.65;;;0.30;;
77206;SDS011;66190;50.708;7.906;2023-01-15T03:31:10;1.55;;;0.40;;
77206;SDS011;66190;50.708;7.906;2023-01-15T03:33:36;1.70;;;0.30;;
77206;SDS011;66190;50.708;7.906;2023-01-15T03:36:02;5.13;;;0.45;;
77206;SDS011;66190;50.708;7.906;2023-01-15T03:38:29;2.00;;;0.37;;
77206;SDS011;66190;50.708;7.906;2023-01-15T03:43:58;2.38;;;0.30;;
77206;SDS011;66190;50.708;7.906;2023-01-15T03:46:32;2.45;;;0.40;;
77206;SDS011;66190;50.708;7.906;2023-01-15T03:54:30;2.22;;;0.30;;
77206;SDS011;66190;50.708;7.906;2023-01-15T03:57:09;2.85;;;0.43;;
77206;SDS011;66190;50.708;7.906;2023-01-15T03:59:44;4.90;;;0.40;;
77206;SDS011;66190;50.708;7.906;2023-01-15T04:02:19;1.67;;;0.30;;
77206;SDS011;66190;50.708;7.906;2023-01-15T04:04:46;3.65;;;0.40;;
77206;SDS011;66190;50.708;7.906;2023-01-15T04:07:14;1.67;;;0.20;;
77206;SDS011;66190;50.708;7.906;2023-01-15T04:09:41;2.53;;;0.60;;
77206;SDS011;66190;50.708;7.906;2023-01-15T04:12:07;4.20;;;0.30;;
77206;SDS011;66190;50.708;7.906;2023-01-15T04:14:33;2.97;;;0.40;;
77206;SDS011;66190;50.708;7.906;2023-01-15T04:16:58;9.30;;;0.93;;
77206;SDS011;66190;50.708;7.906;2023-01-15T04:19:24;2.35;;;0.30;;
77206;SDS011;66190;50.708;7.906;2023-01-15T04:21:50;4.73;;;0.50;;
77206;SDS011;66190;50.708;7.906;2023-01-15T04:24:15;2.72;;;0.43;;
77206;SDS011;66190;50.708;7.906;2023-01-15T04:26:41;4.60;;;0.50;;
77206;SDS011;66190;50.708;7.906;2023-01-15T04:29:07;3.77;;;0.53;;
77206;SDS011;66190;50.708;7.906;2023-01-15T04:31:32;6.95;;;0.40;;
77206;SDS011;66190;50.708;7.906;2023-01-15T04:34:00;2.92;;;0.40;;
77206;SDS011;66190;50.708;7.906;2023-01-15T04:36:26;2.63;;;0.40;;
77206;SDS011;66190;50.708;7.906;2023-01-15T04:38:52;2.85;;;0.40;;
77206;SDS011;66190;50.708;7.906;2023-01-15T04:41:18;3.75;;;0.32;;
77206;SDS011;66190;50.708;7.906;2023-01-15T04:44:02;4.35;;;0.40;;
77206;SDS011;66190;50.708;7.906;2023-01-15T04:46:38;2.80;;;0.37;;
77206;SDS011;66190;50.708;7.906;2023-01-15T04:49:07;1.95;;;0.35;;
77206;SDS011;66190;50.708;7.906;2023-01-15T04:51:37;3.30;;;0.40;;
77206;SDS011;66190;50.708;7.906;2023-01-15T04:54:04;2.80;;;0.40;;
77206;SDS011;66190;50.708;7.906;2023-01-15T04:56:31;3.13;;;0.52;;
77206;SDS011;66190;50.708;7.906;2023-01-15T04:59:01;2.90;;;0.60;;
77206;SDS011;66190;50.708;7.906;2023-01-15T05:01:27;3.38;;;0.90;;
77206;SDS011;66190;50.708;7.906;2023-01-15T05:03:53;4.47;;;0.40;;
77206;SDS011;66190;50.708;7.906;2023-01-15T05:06:18;2.63;;;0.47;;
77206;SDS011;66190;50.708;7.906;2023-01-15T05:08:44;2.63;;;0.30;;
77206;SDS011;66190;50.708;7.906;2023-01-15T05:11:10;2.90;;;0.30;;
77206;SDS011;66190;50.708;7.906;2023-01-15T05:13:36;3.70;;;0.40;;
77206;SDS011;66190;50.708;7.906;2023-01-15T05:16:23;4.40;;;0.70;;
77206;SDS011;66190;50.708;7.906;2023-01-15T05:18:51;5.95;;;0.70;;
77206;SDS011;66190;50.708;7.906;2023-01-15T05:21:25;2.58;;;0.47;;
77206;SDS011;66190;50.708;7.906;2023-01-15T05:23:56;3.93;;;0.50;;
77206;SDS011;66190;50.708;7.906;2023-01-15T05:26:24;6.00;;;0.60;;
77206;SDS011;66190;50.708;7.906;2023-01-15T05:28:55;2.88;;;0.52;;
77206;SDS011;66190;50.708;7.906;2023-01-15T05:31:22;5.43;;;0.70;;
77206;SDS011;66190;50.708;7.906;2023-01-15T05:33:49;1.65;;;0.40;;
77206;SDS011;66190;50.708;7.906;2023-01-15T05:36:16;4.33;;;0.60;;
77206;SDS011;66190;50.708;7.906;2023-01-15T05:38:44;4.22;;;0.50;;
77206;SDS011;66190;50.708;7.906;2023-01-15T05:41:11;5.50;;;0.60;;
77206;SDS011;66190;50.708;7.906;2023-01-15T05:43:58;4.45;;;0.55;;
77206;SDS011;66190;50.708;7.906;2023-01-15T05:46:26;3.13;;;0.47;;
77206;SDS011;66190;50.708;7.906;2023-01-15T05:48:51;2.25;;;0.30;;
77206;SDS011;66190;50.708;7.906;2023-01-15T05:51:17;2.08;;;0.43;;
77206;SDS011;66190;50.708;7.906;2023-01-15T05:53:43;3.80;;;0.40;;
77206;SDS011;66190;50.708;7.906;2023-01-15T05:56:09;3.55;;;0.40;;
77206;SDS011;66190;50.708;7.906;2023-01-15T05:58:35;6.70;;;0.90;;
77206;SDS011;66190;50.708;7.906;2023-01-15T06:01:04;4.07;;;0.40;;
77206;SDS011;66190;50.708;7.906;2023-01-15T06:03:34;3.10;;;0.50;;
77206;SDS011;66190;50.708;7.906;2023-01-15T06:06:00;3.97;;;0.70;;
77206;SDS011;66190;50.708;7.906;2023-01-15T06:08:26;4.30;;;0.60;;
77206;SDS011;66190;50.708;7.906;2023-01-15T06:10:51;5.97;;;0.40;;
77206;SDS011;66190;50.708;7.906;2023-01-15T06:13:17;2.47;;;0.40;;
77206;SDS011;66190;50.708;7.906;2023-01-15T06:15:43;4.40;;;0.50;;
77206;SDS011;66190;50.708;7.906;2023-01-15T06:18:09;7.93;;;0.50;;
77206;SDS011;66190;50.708;7.906;2023-01-15T06:20:35;2.10;;;0.40;;
77206;SDS011;66190;50.708;7.906;2023-01-15T06:23:05;4.45;;;0.60;;
77206;SDS011;66190;50.708;7.906;2023-01-15T06:25:32;2.63;;;0.50;;
77206;SDS011;66190;50.708;7.906;2023-01-15T06:28:01;4.23;;;0.53;;
77206;SDS011;66190;50.708;7.906;2023-01-15T06:30:28;4.65;;;0.50;;
77206;SDS011;66190;50.708;7.906;2023-01-15T06:32:54;3.45;;;0.50;;
77206;SDS011;66190;50.708;7.906;2023-01-15T06:35:19;2.63;;;0.33;;
77206;SDS011;66190;50.708;7.906;2023-01-15T06:37:45;3.10;;;0.60;;
77206;SDS011;66190;50.708;7.906;2023-01-15T06:40:12;5.00;;;0.40;;
77206;SDS011;66190;50.708;7.906;2023-01-15T06:42:38;4.95;;;0.55;;
77206;SDS011;66190;50.708;7.906;2023-01-15T06:45:22;4.40;;;0.68;;
77206;SDS011;66190;50.708;7.906;2023-01-15T06:48:06;3.42;;;0.60;;
77206;SDS011;66190;50.708;7.906;2023-01-15T06:50:32;5.60;;;0.70;;
77206;SDS011;66190;50.708;7.906;2023-01-15T06:52:57;6.45;;;0.60;;
77206;SDS011;66190;50.708;7.906;2023-01-15T06:55:23;5.40;;;0.73;;
77206;SDS011;66190;50.708;7.906;2023-01-15T06:57:49;3.83;;;0.60;;
77206;SDS011;66190;50.708;7.906;2023-01-15T07:00:14;3.67;;;0.63;;
77206;SDS011;66190;50.708;7.906;2023-01-15T07:02:40;4.47;;;0.47;;
77206;SDS011;66190;50.708;7.906;2023-01-15T07:05:06;3.23;;;0.60;;
77206;SDS011;66190;50.708;7.906;2023-01-15T07:07:33;6.20;;;0.50;;
77206;SDS011;66190;50.708;7.906;2023-01-15T07:09:59;3.92;;;0.50;;
77206;SDS011;66190;50.708;7.906;2023-01-15T07:12:24;3.93;;;0.60;;
77206;SDS011;66190;50.708;7.906;2023-01-15T07:14:51;2.67;;;0.45;;
77206;SDS011;66190;50.708;7.906;2023-01-15T07:17:16;4.07;;;0.60;;
77206;SDS011;66190;50.708;7.906;2023-01-15T07:19:42;4.47;;;0.70;;
77206;SDS011;66190;50.708;7.906;2023-01-15T07:22:08;6.82;;;1.10;;
77206;SDS011;66190;50.708;7.906;2023-01-15T07:24:34;4.82;;;0.90;;
77206;SDS011;66190;50.708;7.906;2023-01-15T07:27:00;3.83;;;0.97;;
77206;SDS011;66190;50.708;7.906;2023-01-15T07:29:26;3.30;;;0.60;;
77206;SDS011;66190;50.708;7.906;2023-01-15T07:31:52;4.07;;;0.70;;
77206;SDS011;66190;50.708;7.906;2023-01-15T07:34:18;4.55;;;0.60;;
77206;SDS011;66190;50.708;7.906;2023-01-15T07:36:44;3.53;;;0.60;;
77206;SDS011;66190;50.708;7.906;2023-01-15T07:39:10;3.57;;;0.70;;
77206;SDS011;66190;50.708;7.906;2023-01-15T07:41:36;4.07;;;0.60;;
77206;SDS011;66190;50.708;7.906;2023-01-15T07:44:21;3.05;;;0.50;;
77206;SDS011;66190;50.708;7.906;2023-01-15T07:47:18;4.07;;;0.70;;
77206;SDS011;66190;50.708;7.906;2023-01-15T07:50:05;4.75;;;0.90;;
77206;SDS011;66190;50.708;7.906;2023-01-15T07:52:33;4.23;;;0.60;;
77206;SDS011;66190;50.708;7.906;2023-01-15T07:54:58;4.30;;;0.80;;
77206;SDS011;66190;50.708;7.906;2023-01-15T07:57:25;5.65;;;1.02;;
77206;SDS011;66190;50.708;7.906;2023-01-15T07:59:51;8.47;;;1.97;;
77206;SDS011;66190;50.708;7.906;2023-01-15T08:02:17;6.65;;;1.30;;
77206;SDS011;66190;50.708;7.906;2023-01-15T08:04:43;8.10;;;2.30;;
77206;SDS011;66190;50.708;7.906;2023-01-15T08:07:08;9.43;;;2.83;;
77206;SDS011;66190;50.708;7.906;2023-01-15T08:09:34;7.82;;;1.95;;
77206;SDS011;66190;50.708;7.906;2023-01-15T08:12:00;4.15;;;0.90;;
77206;SDS011;66190;50.708;7.906;2023-01-15T08:14:45;6.72;;;1.58;;
77206;SDS011;66190;50.708;7.906;2023-01-15T08:17:33;4.53;;;0.98;;
77206;SDS011;66190;50.708;7.906;2023-01-15T08:20:01;3.28;;;0.50;;
77206;SDS011;66190;50.708;7.906;2023-01-15T08:22:28;5.30;;;1.10;;
77206;SDS011;66190;50.708;7.906;2023-01-15T08:24:53;4.07;;;0.80;;
77206;SDS011;66190;50.708;7.906;2023-01-15T08:27:19;4.30;;;1.10;;
77206;SDS011;66190;50.708;7.906;2023-01-15T08:29:44;4.10;;;1.00;;
77206;SDS011;66190;50.708;7.906;2023-01-15T08:32:10;4.00;;;0.53;;
77206;SDS011;66190;50.708;7.906;2023-01-15T08:34:36;3.05;;;0.50;;
77206;SDS011;66190;50.708;7.906;2023-01-15T08:37:01;2.43;;;0.40;;
77206;SDS011;66190;50.708;7.906;2023-01-15T08:39:27;3.28;;;0.73;;
77206;SDS011;66190;50.708;7.906;2023-01-15T08:41:53;3.47;;;0.70;;
77206;SDS011;66190;50.708;7.906;2023-01-15T08:44:20;2.90;;;0.55;;
77206;SDS011;66190;50.708;7.906;2023-01-15T08:46:47;3.90;;;0.50;;
77206;SDS011;66190;50.708;7.906;2023-01-15T08:49:14;3.70;;;0.60;;
77206;SDS011;66190;50.708;7.906;2023-01-15T08:51:40;3.20;;;0.50;;
77206;SDS011;66190;50.708;7.906;2023-01-15T08:54:06;3.70;;;0.70;;
77206;SDS011;66190;50.708;7.906;2023-01-15T08:56:31;2.63;;;0.50;;
77206;SDS011;66190;50.708;7.906;2023-01-15T08:58:57;2.10;;;0.40;;
77206;SDS011;66190;50.708;7.906;2023-01-15T09:01:23;3.53;;;0.60;;
77206;SDS011;66190;50.708;7.906;2023-01-15T09:03:48;3.53;;;0.50;;
77206;SDS011;66190;50.708;7.906;2023-01-15T09:06:14;3.17;;;0.60;;
77206;SDS011;66190;50.708;7.906;2023-01-15T09:08:39;2.58;;;0.43;;
77206;SDS011;66190;50.708;7.906;2023-01-15T09:11:06;2.70;;;0.50;;
77206;SDS011;66190;50.708;7.906;2023-01-15T09:13:37;3.17;;;0.40;;
77206;SDS011;66190;50.708;7.906;2023-01-15T09:16:03;2.17;;;0.40;;
77206;SDS011;66190;50.708;7.906;2023-01-15T09:18:31;2.83;;;0.50;;
77206;SDS011;66190;50.708;7.906;2023-01-15T09:20:57;6.10;;;1.58;;
77206;SDS011;66190;50.708;7.906;2023-01-15T09:23:23;4.88;;;1.00;;
77206;SDS011;66190;50.708;7.906;2023-01-15T09:25:52;4.78;;;0.90;;
77206;SDS011;66190;50.708;7.906;2023-01-15T09:28:19;4.13;;;0.80;;
77206;SDS011;66190;50.708;7.906;2023-01-15T09:30:44;4.37;;;0.70;;
77206;SDS011;66190;50.708;7.906;2023-01-15T09:33:10;3.55;;;0.60;;
77206;SDS011;66190;50.708;7.906;2023-01-15T09:35:36;4.10;;;0.70;;
77206;SDS011;66190;50.708;7.906;2023-01-15T09:38:02;4.80;;;1.10;;
77206;SDS011;66190;50.708;7.906;2023-01-15T09:43:06;4.55;;;0.60;;
77206;SDS011;66190;50.708;7.906;2023-01-15T09:45:42;6.25;;;1.15;;
77206;SDS011;66190;50.708;7.906;2023-01-15T09:48:22;4.78;;;0.60;;
77206;SDS011;66190;50.708;7.906;2023-01-15T09:50:54;5.15;;;0.90;;
77206;SDS011;66190;50.708;7.906;2023-01-15T09:53:50;7.73;;;1.57;;
77206;SDS011;66190;50.708;7.906;2023-01-15T09:56:19;7.32;;;1.33;;
77206;SDS011;66190;50.708;7.906;2023-01-15T09:58:48;6.65;;;1.80;;
77206;SDS011;66190;50.708;7.906;2023-01-15T10:01:18;8.35;;;2.33;;
77206;SDS011;66190;50.708;7.906;2023-01-15T10:03:55;5.65;;;2.10;;
77206;SDS011;66190;50.708;7.906;2023-01-15T10:06:55;6.70;;;2.27;;
77206;SDS011;66190;50.708;7.906;2023-01-15T10:09:45;7.13;;;1.50;;
77206;SDS011;66190;50.708;7.906;2023-01-15T10:12:20;6.72;;;2.60;;
77206;SDS011;66190;50.708;7.906;2023-01-15T10:17:39;7.13;;;2.20;;
77206;SDS011;66190;50.708;7.906;2023-01-15T10:20:14;11.67;;;6.33;;
77206;SDS011;66190;50.708;7.906;2023-01-15T10:23:08;9.70;;;4.38;;
77206;SDS011;66190;50.708;7.906;2023-01-15T10:25:57;7.07;;;2.92;;
77206;SDS011;66190;50.708;7.906;2023-01-15T10:28:29;6.57;;;2.35;;
77206;SDS011;66190;50.708;7.906;2023-01-15T10:31:01;7.63;;;2.67;;
77206;SDS011;66190;50.708;7.906;2023-01-15T10:36:11;6.22;;;1.33;;
77206;SDS011;66190;50.708;7.906;2023-01-15T10:47:14;9.47;;;2.10;;
77206;SDS011;66190;50.708;7.906;2023-01-15T10:49:42;6.45;;;1.20;;
77206;SDS011;66190;50.708;7.906;2023-01-15T10:54:45;8.10;;;2.67;;
77206;SDS011;66190;50.708;7.906;2023-01-15T10:57:40;6.25;;;1.05;;
77206;SDS011;66190;50.708;7.906;2023-01-15T11:00:09;4.73;;;1.47;;
77206;SDS011;66190;50.708;7.906;2023-01-15T11:02:42;7.47;;;0.95;;
77206;SDS011;66190;50.708;7.906;2023-01-15T11:05:14;4.15;;;0.77;;
77206;SDS011;66190;50.708;7.906;2023-01-15T11:07:44;9.77;;;0.90;;
77206;SDS011;66190;50.708;7.906;2023-01-15T11:10:12;6.70;;;0.80;;
77206;SDS011;66190;50.708;7.906;2023-01-15T11:12:41;4.90;;;0.80;;
77206;SDS011;66190;50.708;7.906;2023-01-15T11:15:35;8.38;;;0.68;;
77206;SDS011;66190;50.708;7.906;2023-01-15T11:18:26;7.53;;;0.80;;
77206;SDS011;66190;50.708;7.906;2023-01-15T11:21:17;6.82;;;0.63;;
77206;SDS011;66190;50.708;7.906;2023-01-15T11:23:45;5.70;;;0.90;;
77206;SDS011;66190;50.708;7.906;2023-01-15T11:26:16;3.17;;;0.50;;
77206;SDS011;66190;50.708;7.906;2023-01-15T11:28:46;4.35;;;0.63;;
77206;SDS011;66190;50.708;7.906;2023-01-15T11:31:13;6.68;;;0.80;;
77206;SDS011;66190;50.708;7.906;2023-01-15T11:33:39;5.72;;;0.57;;
77206;SDS011;66190;50.708;7.906;2023-01-15T11:36:19;10.23;;;2.08;;
77206;SDS011;66190;50.708;7.906;2023-01-15T11:38:47;8.37;;;1.37;;
77206;SDS011;66190;50.708;7.906;2023-01-15T11:43:54;8.07;;;0.80;;
77206;SDS011;66190;50.708;7.906;2023-01-15T11:46:44;4.93;;;0.82;;
77206;SDS011;66190;50.708;7.906;2023-01-15T11:49:29;5.25;;;0.75;;
77206;SDS011;66190;50.708;7.906;2023-01-15T11:52:15;6.50;;;0.90;;
77206;SDS011;66190;50.708;7.906;2023-01-15T11:54:45;6.28;;;0.80;;
77206;SDS011;66190;50.708;7.906;2023-01-15T11:57:23;6.15;;;0.82;;
77206;SDS011;66190;50.708;7.906;2023-01-15T11:59:51;7.95;;;0.88;;
77206;SDS011;66190;50.708;7.906;2023-01-15T12:04:52;6.22;;;1.30;;
77206;SDS011;66190;50.708;7.906;2023-01-15T12:07:23;10.45;;;0.98;;
77206;SDS011;66190;50.708;7.906;2023-01-15T12:10:01;7.43;;;1.60;;
77206;SDS011;66190;50.708;7.906;2023-01-15T12:18:27;6.38;;;0.80;;
77206;SDS011;66190;50.708;7.906;2023-01-15T12:29:21;4.75;;;0.60;;
77206;SDS011;66190;50.708;7.906;2023-01-15T12:34:23;3.28;;;0.47;;
77206;SDS011;66190;50.708;7.906;2023-01-15T12:36:57;5.22;;;0.90;;
77206;SDS011;66190;50.708;7.906;2023-01-15T12:42:02;5.78;;;0.90;;
77206;SDS011;66190;50.708;7.906;2023-01-15T12:44:50;6.85;;;1.20;;
77206;SDS011;66190;50.708;7.906;2023-01-15T12:47:29;6.97;;;1.10;;
77206;SDS011;66190;50.708;7.906;2023-01-15T12:50:26;6.50;;;1.15;;
77206;SDS011;66190;50.708;7.906;2023-01-15T12:53:02;8.00;;;1.00;;
77206;SDS011;66190;50.708;7.906;2023-01-15T12:55:35;4.85;;;0.82;;
77206;SDS011;66190;50.708;7.906;2023-01-15T12:58:09;7.75;;;1.10;;
77206;SDS011;66190;50.708;7.906;2023-01-15T13:01:01;8.02;;;1.50;;
77206;SDS011;66190;50.708;7.906;2023-01-15T13:06:34;5.13;;;0.80;;
77206;SDS011;66190;50.708;7.906;2023-01-15T13:12:17;7.30;;;1.00;;
77206;SDS011;66190;50.708;7.906;2023-01-15T13:14:43;5.20;;;1.00;;
77206;SDS011;66190;50.708;7.906;2023-01-15T13:22:43;7.23;;;0.90;;
77206;SDS011;66190;50.708;7.906;2023-01-15T13:25:22;4.88;;;0.88;;
77206;SDS011;66190;50.708;7.906;2023-01-15T13:35:49;8.80;;;0.87;;
77206;SDS011;66190;50.708;7.906;2023-01-15T13:38:20;6.03;;;0.90;;
77206;SDS011;66190;50.708;7.906;2023-01-15T13:40:48;6.22;;;1.20;;
77206;SDS011;66190;50.708;7.906;2023-01-15T13:46:12;6.47;;;0.90;;
77206;SDS011;66190;50.708;7.906;2023-01-15T13:48:45;6.13;;;0.77;;
77206;SDS011;66190;50.708;7.906;2023-01-15T13:51:25;6.30;;;1.15;;
77206;SDS011;66190;50.708;7.906;2023-01-15T13:53:51;3.70;;;0.75;;
77206;SDS011;66190;50.708;7.906;2023-01-15T13:56:28;6.93;;;1.00;;
77206;SDS011;66190;50.708;7.906;2023-01-15T13:59:04;4.80;;;1.07;;
77206;SDS011;66190;50.708;7.906;2023-01-15T14:01:34;9.23;;;0.80;;
77206;SDS011;66190;50.708;7.906;2023-01-15T14:04:05;11.57;;;2.40;;
77206;SDS011;66190;50.708;7.906;2023-01-15T14:06:38;7.88;;;1.70;;
77206;SDS011;66190;50.708;7.906;2023-01-15T14:09:27;9.38;;;1.67;;
77206;SDS011;66190;50.708;7.906;2023-01-15T14:14:59;11.63;;;1.75;;
77206;SDS011;66190;50.708;7.906;2023-01-15T14:20:30;6.63;;;1.15;;
77206;SDS011;66190;50.708;7.906;2023-01-15T14:31:32;9.25;;;1.67;;
77206;SDS011;66190;50.708;7.906;2023-01-15T14:36:57;7.75;;;1.80;;
77206;SDS011;66190;50.708;7.906;2023-01-15T14:41:59;6.25;;;1.77;;
77206;SDS011;66190;50.708;7.906;2023-01-15T14:44:56;6.20;;;1.10;;
77206;SDS011;66190;50.708;7.906;2023-01-15T14:47:34;8.85;;;1.67;;
77206;SDS011;66190;50.708;7.906;2023-01-15T14:55:51;5.72;;;1.00;;
77206;SDS011;66190;50.708;7.906;2023-01-15T15:01:13;7.35;;;1.85;;
77206;SDS011;66190;50.708;7.906;2023-01-15T15:03:43;8.68;;;1.55;;
77206;SDS011;66190;50.708;7.906;2023-01-15T15:06:22;5.80;;;0.80;;
77206;SDS011;66190;50.708;7.906;2023-01-15T15:08:49;9.23;;;2.20;;
77206;SDS011;66190;50.708;7.906;2023-01-15T15:11:20;6.20;;;1.20;;
77206;SDS011;66190;50.708;7.906;2023-01-15T15:14:11;10.88;;;1.33;;
77206;SDS011;66190;50.708;7.906;2023-01-15T15:16:42;6.68;;;1.85;;
77206;SDS011;66190;50.708;7.906;2023-01-15T15:21:49;7.75;;;2.22;;
77206;SDS011;66190;50.708;7.906;2023-01-15T15:24:24;7.33;;;1.53;;
77206;SDS011;66190;50.708;7.906;2023-01-15T15:26:53;7.90;;;1.20;;
77206;SDS011;66190;50.708;7.906;2023-01-15T15:29:19;5.82;;;1.15;;
77206;SDS011;66190;50.708;7.906;2023-01-15T15:34:25;7.32;;;0.90;;
77206;SDS011;66190;50.708;7.906;2023-01-15T15:36:52;5.70;;;1.63;;
77206;SDS011;66190;50.708;7.906;2023-01-15T15:39:25;4.50;;;0.60;;
77206;SDS011;66190;50.708;7.906;2023-01-15T15:41:58;9.23;;;2.45;;
77206;SDS011;66190;50.708;7.906;2023-01-15T15:44:54;10.70;;;3.37;;
77206;SDS011;66190;50.708;7.906;2023-01-15T15:47:41;10.70;;;3.92;;
77206;SDS011;66190;50.708;7.906;2023-01-15T15:50:27;6.10;;;1.40;;
77206;SDS011;66190;50.708;7.906;2023-01-15T15:52:57;8.73;;;2.75;;
77206;SDS011;66190;50.708;7.906;2023-01-15T15:55:31;7.03;;;1.20;;
77206;SDS011;66190;50.708;7.906;2023-01-15T15:58:02;7.00;;;0.97;;
77206;SDS011;66190;50.708;7.906;2023-01-15T16:00:33;5.13;;;1.10;;
77206;SDS011;66190;50.708;7.906;2023-01-15T16:03:22;8.00;;;1.80;;
77206;SDS011;66190;50.708;7.906;2023-01-15T16:08:21;4.78;;;1.05;;
77206;SDS011;66190;50.708;7.906;2023-01-15T16:10:54;6.90;;;1.00;;
77206;SDS011;66190;50.708;7.906;2023-01-15T16:13:27;8.43;;;2.00;;
77206;SDS011;66190;50.708;7.906;2023-01-15T16:16:02;4.70;;;0.85;;
77206;SDS011;66190;50.708;7.906;2023-01-15T16:18:53;5.80;;;1.20;;
77206;SDS011;66190;50.708;7.906;2023-01-15T16:21:25;5.25;;;0.50;;
77206;SDS011;66190;50.708;7.906;2023-01-15T16:23:54;7.40;;;1.33;;
77206;SDS011;66190;50.708;7.906;2023-01-15T16:26:21;6.28;;;1.73;;
77206;SDS011;66190;50.708;7.906;2023-01-15T16:28:54;6.43;;;1.23;;
77206;SDS011;66190;50.708;7.906;2023-01-15T16:31:22;8.43;;;1.95;;
77206;SDS011;66190;50.708;7.906;2023-01-15T16:33:55;6.18;;;1.20;;
77206;SDS011;66190;50.708;7.906;2023-01-15T16:36:22;9.60;;;1.20;;
77206;SDS011;66190;50.708;7.906;2023-01-15T16:38:50;6.32;;;1.10;;
77206;SDS011;66190;50.708;7.906;2023-01-15T16:41:23;5.32;;;1.02;;
77206;SDS011;66190;50.708;7.906;2023-01-15T16:43:59;7.97;;;1.10;;
77206;SDS011;66190;50.708;7.906;2023-01-15T16:46:29;8.77;;;1.20;;
77206;SDS011;66190;50.708;7.906;2023-01-15T16:51:57;7.25;;;1.10;;
77206;SDS011;66190;50.708;7.906;2023-01-15T16:57:00;5.35;;;1.27;;
77206;SDS011;66190;50.708;7.906;2023-01-15T17:02:14;4.38;;;0.70;;
77206;SDS011;66190;50.708;7.906;2023-01-15T17:04:44;7.57;;;1.20;;
77206;SDS011;66190;50.708;7.906;2023-01-15T17:07:26;5.93;;;1.00;;
77206;SDS011;66190;50.708;7.906;2023-01-15T17:09:59;7.50;;;1.30;;
77206;SDS011;66190;50.708;7.906;2023-01-15T17:12:32;7.63;;;0.73;;
77206;SDS011;66190;50.708;7.906;2023-01-15T17:17:44;6.70;;;1.17;;